createdAt,value
2017-11-21T00:00:17.059Z,11.65
2017-11-21T00:01:19.571Z,12.00
2017-11-21T00:02:22.066Z,11.88
2017-11-21T00:03:24.561Z,12.60
2017-11-21T00:04:27.134Z,13.05
2017-11-21T00:05:30.450Z,12.43
2017-11-21T00:06:33.070Z,13.20
2017-11-21T00:07:35.690Z,13.20
2017-11-21T00:08:38.438Z,14.15
2017-11-21T00:09:41.703Z,13.95
2017-11-21T00:10:44.366Z,13.98
2017-11-21T00:11:46.873Z,14.15
2017-11-21T00:12:49.379Z,13.80
2017-11-21T00:13:51.918Z,14.82
2017-11-21T00:14:54.405Z,14.93
2017-11-21T00:15:56.922Z,14.80
2017-11-21T00:17:00.365Z,16.10
2017-11-21T00:18:02.896Z,16.92
2017-11-21T00:19:05.411Z,16.08
2017-11-21T00:20:07.907Z,16.42
2017-11-21T00:21:11.350Z,17.00
2017-11-21T00:22:13.879Z,16.87
2017-11-21T00:23:16.378Z,15.77
2017-11-21T00:24:19.070Z,17.87
2017-11-21T00:25:21.585Z,16.48
2017-11-21T00:26:24.076Z,18.15
2017-11-21T00:27:26.574Z,17.90
2017-11-21T00:28:29.146Z,19.00
2017-11-21T00:29:32.400Z,18.25
2017-11-21T00:30:35.060Z,19.30
2017-11-21T00:31:37.561Z,19.58
2017-11-21T00:32:40.113Z,20.90
2017-11-21T00:33:42.670Z,20.27
2017-11-21T00:34:46.363Z,21.23
2017-11-21T00:35:48.880Z,19.50
2017-11-21T00:36:51.556Z,21.37
2017-11-21T00:37:54.050Z,21.80
2017-11-21T00:38:56.718Z,21.08
2017-11-21T00:39:59.214Z,20.10
2017-11-21T00:41:01.776Z,22.08
2017-11-21T00:42:04.300Z,21.98
2017-11-21T00:43:06.813Z,22.45
2017-11-21T00:44:09.311Z,23.10
2017-11-21T00:45:11.815Z,22.00
2017-11-21T00:46:14.321Z,22.60
2017-11-21T00:47:17.808Z,23.25
2017-11-21T00:48:21.082Z,22.17
2017-11-21T00:49:23.726Z,23.60
2017-11-21T00:50:26.208Z,25.15
2017-11-21T00:51:28.754Z,23.90
2017-11-21T00:52:32.778Z,25.52
2017-11-21T00:53:35.346Z,22.87
2017-11-21T00:54:37.871Z,23.23
2017-11-21T00:55:40.378Z,23.83
2017-11-21T00:56:42.900Z,23.90
2017-11-21T00:57:45.401Z,25.40
2017-11-21T00:58:47.902Z,25.10
2017-11-21T00:59:51.346Z,23.60
2017-11-21T01:00:53.840Z,26.30
2017-11-21T01:01:57.329Z,25.23
2017-11-21T01:03:00.627Z,25.50
2017-11-21T01:04:03.889Z,24.95
2017-11-21T01:05:06.395Z,23.60
2017-11-21T01:06:08.894Z,26.00
2017-11-21T01:07:11.395Z,26.95
2017-11-21T01:08:14.862Z,27.17
2017-11-21T01:09:17.361Z,24.45
2017-11-21T01:10:19.911Z,26.12
2017-11-21T01:11:23.196Z,25.95
2017-11-21T01:12:26.489Z,25.35
2017-11-21T01:13:29.756Z,25.45
2017-11-21T01:14:33.050Z,22.27
2017-11-21T01:15:36.351Z,25.25
2017-11-21T01:16:38.971Z,25.75
2017-11-21T01:17:41.477Z,25.50
2017-11-21T01:18:44.952Z,23.85
2017-11-21T01:19:48.231Z,24.63
2017-11-21T01:20:51.496Z,23.70
2017-11-21T01:21:54.022Z,24.17
2017-11-21T01:22:56.507Z,23.62
2017-11-21T01:23:59.043Z,24.05
2017-11-21T01:25:01.578Z,22.60
2017-11-21T01:26:05.013Z,23.02
2017-11-21T01:27:07.526Z,23.65
2017-11-21T01:28:10.021Z,23.62
2017-11-21T01:29:12.555Z,23.00
2017-11-21T01:30:15.082Z,22.23
2017-11-21T01:31:17.565Z,24.83
2017-11-21T01:32:20.082Z,23.62
2017-11-21T01:33:22.615Z,23.15
2017-11-21T01:34:25.127Z,21.90
2017-11-21T01:35:27.729Z,23.02
2017-11-21T01:36:30.222Z,22.48
2017-11-21T01:37:33.598Z,22.70
2017-11-21T01:38:36.085Z,21.25
2017-11-21T01:39:39.523Z,21.75
2017-11-21T01:40:42.032Z,19.58
2017-11-21T01:41:45.542Z,22.23
2017-11-21T01:42:48.047Z,20.98
2017-11-21T01:43:50.580Z,21.12
2017-11-21T01:44:53.086Z,20.17
2017-11-21T01:45:55.601Z,21.40
2017-11-21T01:46:58.097Z,22.37
2017-11-21T01:48:00.592Z,20.20
2017-11-21T01:49:03.089Z,22.10
2017-11-21T01:50:06.636Z,22.30
2017-11-21T01:51:09.135Z,20.30
2017-11-21T01:52:12.643Z,21.80
2017-11-21T01:53:15.169Z,19.98
2017-11-21T01:54:17.944Z,20.88
2017-11-21T01:55:20.444Z,20.95
2017-11-21T01:56:23.277Z,21.23
2017-11-21T01:57:25.765Z,21.37
2017-11-21T01:58:29.243Z,22.23
2017-11-21T01:59:32.563Z,20.50
2017-11-21T02:00:35.205Z,21.27
2017-11-21T02:01:38.471Z,19.67
2017-11-21T02:02:41.171Z,22.77
2017-11-21T02:03:44.425Z,20.83
2017-11-21T02:04:47.123Z,21.00
2017-11-21T02:05:50.407Z,21.23
2017-11-21T02:06:53.995Z,19.98
2017-11-21T02:07:56.524Z,22.27
2017-11-21T02:08:59.298Z,22.75
2017-11-21T02:10:01.825Z,21.62
2017-11-21T02:11:04.654Z,22.55
2017-11-21T02:12:07.164Z,21.30
2017-11-21T02:13:09.974Z,21.20
2017-11-21T02:14:12.607Z,22.30
2017-11-21T02:15:15.347Z,21.00
2017-11-21T02:16:18.660Z,21.27
2017-11-21T02:17:21.258Z,22.05
2017-11-21T02:18:23.773Z,21.75
2017-11-21T02:19:26.608Z,23.02
2017-11-21T02:20:29.181Z,21.50
2017-11-21T02:21:32.774Z,20.67
2017-11-21T02:22:35.307Z,20.85
2017-11-21T02:23:37.901Z,21.92
2017-11-21T02:24:40.461Z,21.45
2017-11-21T02:25:43.253Z,21.10
2017-11-21T02:26:45.820Z,22.17
2017-11-21T02:27:48.613Z,21.80
2017-11-21T02:28:51.101Z,21.85
2017-11-21T02:29:53.904Z,22.05
2017-11-21T02:30:56.426Z,22.05
2017-11-21T02:31:59.265Z,21.83
2017-11-21T02:33:01.777Z,24.58
2017-11-21T02:34:04.999Z,22.25
2017-11-21T02:35:07.517Z,21.85
2017-11-21T02:36:10.539Z,22.42
2017-11-21T02:37:13.068Z,21.83
2017-11-21T02:38:15.939Z,23.25
2017-11-21T02:39:18.458Z,22.67
2017-11-21T02:40:21.230Z,24.25
2017-11-21T02:41:23.789Z,22.17
2017-11-21T02:42:27.182Z,23.48
2017-11-21T02:43:29.695Z,22.73
2017-11-21T02:44:32.524Z,23.75
2017-11-21T02:45:35.829Z,25.05
2017-11-21T02:46:39.390Z,23.98
2017-11-21T02:47:41.908Z,24.60
2017-11-21T02:48:44.763Z,24.17
2017-11-21T02:49:49.203Z,23.45
2017-11-21T02:50:51.933Z,23.90
2017-11-21T02:51:55.217Z,23.55
2017-11-21T02:52:58.792Z,23.77
2017-11-21T02:54:01.343Z,23.83
2017-11-21T02:55:04.147Z,23.00
2017-11-21T02:56:07.538Z,22.95
2017-11-21T02:57:11.940Z,23.95
2017-11-21T02:58:15.286Z,23.92
2017-11-21T02:59:17.893Z,21.95
2017-11-21T03:00:21.148Z,22.77
2017-11-21T03:01:23.833Z,22.00
2017-11-21T03:02:27.099Z,23.30
2017-11-21T03:03:29.782Z,23.48
2017-11-21T03:04:32.303Z,22.00
2017-11-21T03:05:35.115Z,22.20
2017-11-21T03:06:39.394Z,21.60
2017-11-21T03:07:41.910Z,21.75
2017-11-21T03:08:45.184Z,22.20
2017-11-21T03:09:48.573Z,21.98
2017-11-21T03:10:51.079Z,20.45
2017-11-21T03:11:53.886Z,21.02
2017-11-21T03:12:56.387Z,22.62
2017-11-21T03:13:59.854Z,19.80
2017-11-21T03:15:02.364Z,20.40
2017-11-21T03:16:05.196Z,20.67
2017-11-21T03:17:07.697Z,20.05
2017-11-21T03:18:10.554Z,20.98
2017-11-21T03:19:13.832Z,22.20
2017-11-21T03:20:29.239Z,20.75
2017-11-21T03:21:43.952Z,20.50
2017-11-21T03:22:59.247Z,19.15
2017-11-21T03:24:13.890Z,20.77
2017-11-21T03:25:28.650Z,20.02
2017-11-21T03:26:31.152Z,19.60
2017-11-21T03:27:33.953Z,18.73
2017-11-21T03:28:39.204Z,19.20
2017-11-21T03:29:41.740Z,18.25
2017-11-21T03:30:44.271Z,19.85
2017-11-21T03:31:47.054Z,20.23
2017-11-21T03:32:49.565Z,19.70
2017-11-21T03:33:53.032Z,20.70
2017-11-21T03:34:55.553Z,20.37
2017-11-21T03:35:59.874Z,20.35
2017-11-21T03:37:02.369Z,21.17
2017-11-21T03:38:04.936Z,20.12
2017-11-21T03:39:07.422Z,20.45
2017-11-21T03:40:10.865Z,19.70
2017-11-21T03:41:13.389Z,21.15
2017-11-21T03:42:16.222Z,22.65
2017-11-21T03:43:19.669Z,22.37
2017-11-21T03:44:22.459Z,22.67
2017-11-21T03:45:24.935Z,22.55
2017-11-21T03:46:27.519Z,22.33
2017-11-21T03:47:30.035Z,23.50
2017-11-21T03:48:32.836Z,21.05
2017-11-21T03:49:35.326Z,22.90
2017-11-21T03:50:38.786Z,23.83
2017-11-21T03:51:41.282Z,22.83
2017-11-21T03:52:43.808Z,24.23
2017-11-21T03:53:46.287Z,23.45
2017-11-21T03:54:48.860Z,24.95
2017-11-21T03:55:51.349Z,23.45
2017-11-21T03:56:54.876Z,25.05
2017-11-21T03:57:57.388Z,25.48
2017-11-21T03:59:00.144Z,24.50
2017-11-21T04:00:02.643Z,23.55
2017-11-21T04:01:06.110Z,23.87
2017-11-21T04:02:08.686Z,24.98
2017-11-21T04:03:12.068Z,25.25
2017-11-21T04:04:14.587Z,23.90
2017-11-21T04:05:17.408Z,24.37
2017-11-21T04:06:19.893Z,23.67
2017-11-21T04:07:23.329Z,24.52
2017-11-21T04:08:25.834Z,25.30
2017-11-21T04:09:28.376Z,20.73
2017-11-21T04:10:30.858Z,22.20
2017-11-21T04:11:33.428Z,21.10
2017-11-21T04:12:35.927Z,20.88
2017-11-21T04:13:38.772Z,20.83
2017-11-21T04:14:41.271Z,21.33
2017-11-21T04:15:44.111Z,20.67
2017-11-21T04:16:46.659Z,21.65
2017-11-21T04:17:50.350Z,21.30
2017-11-21T04:18:52.838Z,21.05
2017-11-21T04:19:56.318Z,22.83
2017-11-21T04:20:58.829Z,19.08
2017-11-21T04:22:01.671Z,20.90
2017-11-21T04:23:04.940Z,21.05
2017-11-21T04:24:08.621Z,23.52
2017-11-21T04:25:11.118Z,22.73
2017-11-21T04:26:15.709Z,25.00
2017-11-21T04:27:18.201Z,27.65
2017-11-21T04:28:31.136Z,25.12
2017-11-21T04:29:33.655Z,25.50
2017-11-21T04:30:36.223Z,26.87
2017-11-21T04:31:39.219Z,27.55
2017-11-21T04:32:47.677Z,28.30
2017-11-21T04:33:50.190Z,25.60
2017-11-21T04:34:53.193Z,27.08
2017-11-21T04:35:55.690Z,28.23
2017-11-21T04:36:58.385Z,27.98
2017-11-21T04:38:00.870Z,28.98
2017-11-21T04:39:03.411Z,30.67
2017-11-21T04:40:07.880Z,28.75
2017-11-21T04:41:10.566Z,28.67
2017-11-21T04:42:14.096Z,29.00
2017-11-21T04:43:17.434Z,29.52
2017-11-21T04:44:19.956Z,29.60
2017-11-21T04:45:22.486Z,29.45
2017-11-21T04:46:24.987Z,29.73
2017-11-21T04:47:27.728Z,30.50
2017-11-21T04:48:30.229Z,32.08
2017-11-21T04:49:33.790Z,30.98
2017-11-21T04:50:36.287Z,28.83
2017-11-21T04:51:40.628Z,31.77
2017-11-21T04:52:43.250Z,28.65
2017-11-21T04:53:46.028Z,28.92
2017-11-21T04:54:49.294Z,29.42
2017-11-21T04:55:51.970Z,29.35
2017-11-21T04:56:54.454Z,30.25
2017-11-21T04:57:57.925Z,29.92
2017-11-21T04:59:00.482Z,29.55
2017-11-21T05:00:04.186Z,30.48
2017-11-21T05:01:06.701Z,29.58
2017-11-21T05:02:09.591Z,30.70
2017-11-21T05:03:12.107Z,28.60
2017-11-21T05:04:15.522Z,27.60
2017-11-21T05:05:18.023Z,30.70
2017-11-21T05:06:20.825Z,28.48
2017-11-21T05:07:23.327Z,30.37
2017-11-21T05:08:26.157Z,29.45
2017-11-21T05:09:29.507Z,30.65
2017-11-21T05:10:32.094Z,29.85
2017-11-21T05:11:34.575Z,29.52
2017-11-21T05:12:37.139Z,30.65
2017-11-21T05:13:39.654Z,31.60
2017-11-21T05:14:42.465Z,29.20
2017-11-21T05:15:44.974Z,30.20
2017-11-21T05:16:48.804Z,30.10
2017-11-21T05:17:51.820Z,31.05
2017-11-21T05:18:57.225Z,30.92
2017-11-21T05:19:59.727Z,30.50
2017-11-21T05:21:05.917Z,33.28
2017-11-21T05:22:08.427Z,30.80
2017-11-21T05:23:16.152Z,31.70
2017-11-21T05:24:18.714Z,28.90
2017-11-21T05:25:21.488Z,31.90
2017-11-21T05:26:24.755Z,29.92
2017-11-21T05:27:27.426Z,30.83
2017-11-21T05:28:29.935Z,31.80
2017-11-21T05:29:32.789Z,29.85
2017-11-21T05:30:36.071Z,31.58
2017-11-21T05:31:39.628Z,32.90
2017-11-21T05:32:54.238Z,30.05
2017-11-21T05:33:56.756Z,32.28
2017-11-21T05:34:59.326Z,31.10
2017-11-21T05:36:01.832Z,31.25
2017-11-21T05:37:04.664Z,33.17
2017-11-21T05:38:07.163Z,33.58
2017-11-21T05:39:10.614Z,32.03
2017-11-21T05:40:13.233Z,33.40
2017-11-21T05:41:15.980Z,31.90
2017-11-21T05:42:19.235Z,32.20
2017-11-21T05:43:21.922Z,29.58
2017-11-21T05:44:27.167Z,31.30
2017-11-21T05:45:30.615Z,33.13
2017-11-21T05:46:33.129Z,32.05
2017-11-21T05:47:36.017Z,30.17
2017-11-21T05:48:38.509Z,29.77
2017-11-21T05:49:41.293Z,29.73
2017-11-21T05:50:43.786Z,31.37
2017-11-21T05:51:47.262Z,31.25
2017-11-21T05:52:50.578Z,33.72
2017-11-21T05:53:53.202Z,32.03
2017-11-21T05:54:55.719Z,33.38
2017-11-21T05:55:58.525Z,31.83
2017-11-21T05:57:01.019Z,33.17
2017-11-21T05:58:04.530Z,31.37
2017-11-21T05:59:07.789Z,34.50
2017-11-21T06:00:10.470Z,31.45
2017-11-21T06:01:13.794Z,32.65
2017-11-21T06:02:16.392Z,31.92
2017-11-21T06:03:18.894Z,30.42
2017-11-21T06:04:22.376Z,31.30
2017-11-21T06:05:25.648Z,31.20
2017-11-21T06:06:29.260Z,31.70
2017-11-21T06:07:32.536Z,33.53
2017-11-21T06:08:37.046Z,32.53
2017-11-21T06:09:40.306Z,31.15
2017-11-21T06:10:42.994Z,32.97
2017-11-21T06:11:46.246Z,31.80
2017-11-21T06:12:48.970Z,32.17
2017-11-21T06:13:51.475Z,31.52
2017-11-21T06:14:54.274Z,31.48
2017-11-21T06:15:57.072Z,31.75
2017-11-21T06:17:00.515Z,32.25
2017-11-21T06:18:03.060Z,31.05
2017-11-21T06:19:05.894Z,30.17
2017-11-21T06:20:09.264Z,31.45
2017-11-21T06:21:12.802Z,31.65
2017-11-21T06:22:15.330Z,30.85
2017-11-21T06:23:18.682Z,33.08
2017-11-21T06:24:21.503Z,31.67
2017-11-21T06:25:24.969Z,32.80
2017-11-21T06:26:28.257Z,32.50
2017-11-21T06:27:31.913Z,33.50
2017-11-21T06:28:34.431Z,34.25
2017-11-21T06:29:37.776Z,32.80
2017-11-21T06:30:40.311Z,33.38
2017-11-21T06:31:43.141Z,34.13
2017-11-21T06:32:45.659Z,32.00
2017-11-21T06:33:48.456Z,32.88
2017-11-21T06:34:50.948Z,34.65
2017-11-21T06:35:54.414Z,32.20
2017-11-21T06:36:56.936Z,32.80
2017-11-21T06:37:59.761Z,32.80
2017-11-21T06:39:02.248Z,33.47
2017-11-21T06:40:06.048Z,32.97
2017-11-21T06:41:09.303Z,33.50
2017-11-21T06:42:12.919Z,31.48
2017-11-21T06:43:16.194Z,31.75
2017-11-21T06:44:19.755Z,33.80
2017-11-21T06:45:22.255Z,35.92
2017-11-21T06:46:25.697Z,34.33
2017-11-21T06:47:28.205Z,36.08
2017-11-21T06:48:31.668Z,32.60
2017-11-21T06:49:34.167Z,33.28
2017-11-21T06:50:37.621Z,33.40
2017-11-21T06:51:40.131Z,35.10
2017-11-21T06:52:42.950Z,34.50
2017-11-21T06:53:45.437Z,35.92
2017-11-21T06:54:48.956Z,32.03
2017-11-21T06:55:51.459Z,32.97
2017-11-21T06:56:54.250Z,32.30
2017-11-21T06:57:56.915Z,32.92
2017-11-21T06:58:59.581Z,34.78
2017-11-21T07:00:02.079Z,33.10
2017-11-21T07:01:05.529Z,33.20
2017-11-21T07:02:08.063Z,33.47
2017-11-21T07:03:10.889Z,31.30
2017-11-21T07:04:13.662Z,33.35
2017-11-21T07:05:16.242Z,32.20
2017-11-21T07:06:19.526Z,32.75
2017-11-21T07:07:23.105Z,31.30
2017-11-21T07:08:25.645Z,31.42
2017-11-21T07:09:28.483Z,31.10
2017-11-21T07:10:30.982Z,31.62
2017-11-21T07:11:33.748Z,30.08
2017-11-21T07:12:36.243Z,31.62
2017-11-21T07:13:38.826Z,32.38
2017-11-21T07:14:42.132Z,28.87
2017-11-21T07:15:44.754Z,32.28
2017-11-21T07:16:47.264Z,28.60
2017-11-21T07:17:49.777Z,29.30
2017-11-21T07:18:53.033Z,32.00
2017-11-21T07:19:55.731Z,34.22
2017-11-21T07:20:58.261Z,28.48
2017-11-21T07:22:01.065Z,31.17
2017-11-21T07:23:03.557Z,30.23
2017-11-21T07:24:07.036Z,29.80
2017-11-21T07:25:09.521Z,28.15
2017-11-21T07:26:13.290Z,28.90
2017-11-21T07:27:15.799Z,26.40
2017-11-21T07:28:18.330Z,27.92
2017-11-21T07:29:20.825Z,27.50
2017-11-21T07:30:23.349Z,27.37
2017-11-21T07:31:25.839Z,26.60
2017-11-21T07:32:29.321Z,28.17
2017-11-21T07:33:32.597Z,26.37
2017-11-21T07:34:35.250Z,24.65
2017-11-21T07:35:37.730Z,26.30
2017-11-21T07:36:40.282Z,25.23
2017-11-21T07:37:42.765Z,26.65
2017-11-21T07:38:46.266Z,25.50
2017-11-21T07:39:49.526Z,22.70
2017-11-21T07:40:52.248Z,23.75
2017-11-21T07:41:54.742Z,23.95
2017-11-21T07:42:57.546Z,24.60
2017-11-21T07:44:00.090Z,22.70
2017-11-21T07:45:02.861Z,23.60
2017-11-21T07:46:05.499Z,22.98
2017-11-21T07:47:08.336Z,19.30
2017-11-21T07:48:10.815Z,21.17
2017-11-21T07:49:14.230Z,20.58
2017-11-21T07:50:16.907Z,21.25
2017-11-21T07:51:21.029Z,20.40
2017-11-21T07:52:23.559Z,20.60
2017-11-21T07:53:26.381Z,20.98
2017-11-21T07:54:28.884Z,22.17
2017-11-21T07:55:32.389Z,20.95
2017-11-21T07:56:34.888Z,18.45
2017-11-21T07:57:38.402Z,19.00
2017-11-21T07:58:40.895Z,19.40
2017-11-21T07:59:43.630Z,19.00
2017-11-21T08:00:46.114Z,19.35
2017-11-21T08:01:49.571Z,18.05
2017-11-21T08:02:52.076Z,20.05
2017-11-21T08:03:54.613Z,17.42
2017-11-21T08:04:57.150Z,17.50
2017-11-21T08:05:59.931Z,16.85
2017-11-21T08:07:02.459Z,18.75
2017-11-21T08:08:04.978Z,16.90
2017-11-21T08:09:07.473Z,16.75
2017-11-21T08:10:10.940Z,16.35
2017-11-21T08:11:14.174Z,17.90
2017-11-21T08:12:17.990Z,17.90
2017-11-21T08:13:20.654Z,18.08
2017-11-21T08:14:24.143Z,17.87
2017-11-21T08:15:29.438Z,16.48
2017-11-21T08:16:33.130Z,17.55
2017-11-21T08:17:38.267Z,18.87
2017-11-21T08:18:41.759Z,19.87
2017-11-21T08:19:44.883Z,17.02
2017-11-21T08:20:48.857Z,17.08
2017-11-21T08:21:52.171Z,16.55
2017-11-21T08:22:55.046Z,19.70
2017-11-21T08:23:58.113Z,18.65
2017-11-21T08:25:02.217Z,19.60
2017-11-21T08:26:05.527Z,18.40
2017-11-21T08:27:08.076Z,19.02
2017-11-21T08:28:10.580Z,20.48
2017-11-21T08:29:14.070Z,18.50
2017-11-21T08:30:17.322Z,22.45
2017-11-21T08:31:20.085Z,18.85
2017-11-21T08:32:22.838Z,18.58
2017-11-21T08:33:25.655Z,18.95
2017-11-21T08:34:28.922Z,21.33
2017-11-21T08:35:32.556Z,21.23
2017-11-21T08:36:35.074Z,21.37
2017-11-21T08:37:38.043Z,19.58
2017-11-21T08:38:40.551Z,20.23
2017-11-21T08:39:43.200Z,19.25
2017-11-21T08:40:46.488Z,20.75
2017-11-21T08:41:49.126Z,19.75
2017-11-21T08:42:51.629Z,21.08
2017-11-21T08:43:55.124Z,19.90
2017-11-21T08:44:57.620Z,19.70
2017-11-21T08:46:00.464Z,19.58
2017-11-21T08:47:03.524Z,20.92
2017-11-21T08:48:06.105Z,20.12
2017-11-21T08:49:09.369Z,20.77
2017-11-21T08:50:12.051Z,19.48
2017-11-21T08:51:15.320Z,19.40
2017-11-21T08:52:18.002Z,20.77
2017-11-21T08:53:21.300Z,20.50
2017-11-21T08:54:24.866Z,21.90
2017-11-21T08:55:27.372Z,18.83
2017-11-21T08:56:29.887Z,20.37
2017-11-21T08:57:32.505Z,20.80
2017-11-21T08:58:35.798Z,22.27
2017-11-21T08:59:38.457Z,22.17
2017-11-21T09:00:42.253Z,22.50
2017-11-21T09:01:44.796Z,21.05
2017-11-21T09:02:48.099Z,22.30
2017-11-21T09:03:50.633Z,22.20
2017-11-21T09:04:53.396Z,23.10
2017-11-21T09:05:55.908Z,22.98
2017-11-21T09:06:58.459Z,23.20
2017-11-21T09:08:01.725Z,21.52
2017-11-21T09:09:04.365Z,23.95
2017-11-21T09:10:16.415Z,25.00
2017-11-21T09:11:24.873Z,24.20
2017-11-21T09:12:37.901Z,25.27
2017-11-21T09:13:50.974Z,25.20
2017-11-21T09:14:53.675Z,24.02
2017-11-21T09:15:56.420Z,25.60
2017-11-21T09:16:58.934Z,24.20
2017-11-21T09:18:02.279Z,26.77
2017-11-21T09:19:04.802Z,25.05
2017-11-21T09:20:07.323Z,25.25
2017-11-21T09:21:09.831Z,26.77
2017-11-21T09:22:12.517Z,26.73
2017-11-21T09:23:15.059Z,24.42
2017-11-21T09:24:17.861Z,27.20
2017-11-21T09:25:20.358Z,27.05
2017-11-21T09:26:23.035Z,28.20
2017-11-21T09:27:27.035Z,26.45
2017-11-21T09:28:29.539Z,27.13
2017-11-21T09:29:32.042Z,26.62
2017-11-21T09:30:34.634Z,27.70
2017-11-21T09:31:37.928Z,26.10
2017-11-21T09:32:40.694Z,25.80
2017-11-21T09:33:43.217Z,26.80
2017-11-21T09:34:45.944Z,24.70
2017-11-21T09:35:49.250Z,25.12
2017-11-21T09:36:51.878Z,27.35
2017-11-21T09:37:54.386Z,25.65
2017-11-21T09:38:56.911Z,26.50
2017-11-21T09:39:59.417Z,24.50
2017-11-21T09:41:01.918Z,27.27
2017-11-21T09:42:04.550Z,24.87
2017-11-21T09:43:07.286Z,24.85
2017-11-21T09:44:10.591Z,26.77
2017-11-21T09:45:14.123Z,24.17
2017-11-21T09:46:16.740Z,27.13
2017-11-21T09:47:20.116Z,23.40
2017-11-21T09:48:23.382Z,25.37
2017-11-21T09:49:26.046Z,24.00
2017-11-21T09:50:28.544Z,24.85
2017-11-21T09:51:32.130Z,23.05
2017-11-21T09:52:35.441Z,23.02
2017-11-21T09:53:37.955Z,23.80
2017-11-21T09:54:40.458Z,20.62
2017-11-21T09:55:43.901Z,21.65
2017-11-21T09:56:46.394Z,19.55
2017-11-21T09:57:49.855Z,20.08
2017-11-21T09:58:52.380Z,17.90
2017-11-21T09:59:54.884Z,18.33
2017-11-21T10:00:57.388Z,16.37
2017-11-21T10:02:01.806Z,15.40
2017-11-21T10:03:05.081Z,17.00
2017-11-21T10:04:08.684Z,16.40
2017-11-21T10:05:11.783Z,17.20
2017-11-21T10:06:14.716Z,16.08
2017-11-21T10:07:17.295Z,16.10
2017-11-21T10:08:20.866Z,15.10
2017-11-21T10:09:23.392Z,15.15
2017-11-21T10:10:25.888Z,14.82
2017-11-21T10:11:28.389Z,14.73
2017-11-21T10:12:31.864Z,16.45
2017-11-21T10:13:35.128Z,14.63
2017-11-21T10:14:37.787Z,14.25
2017-11-21T10:15:40.301Z,13.88
2017-11-21T10:16:42.802Z,13.88
2017-11-21T10:17:45.324Z,14.90
2017-11-21T10:18:47.852Z,13.30
2017-11-21T10:19:50.380Z,13.27
2017-11-21T10:20:52.877Z,13.73
2017-11-21T10:21:55.425Z,12.45
2017-11-21T10:22:58.858Z,12.52
2017-11-21T10:24:01.377Z,12.80
2017-11-21T10:25:03.906Z,13.35
2017-11-21T10:26:07.183Z,12.32
2017-11-21T10:27:10.754Z,11.88
2017-11-21T10:28:14.805Z,11.70
2017-11-21T10:29:17.358Z,11.12
2017-11-21T10:30:19.862Z,10.52
2017-11-21T10:31:22.646Z,9.65
2017-11-21T10:32:25.177Z,10.48
2017-11-21T10:33:27.658Z,9.85
2017-11-21T10:34:30.208Z,10.15
2017-11-21T10:35:33.903Z,8.85
2017-11-21T10:36:36.421Z,8.93
2017-11-21T10:37:39.008Z,8.65
2017-11-21T10:38:42.277Z,9.80
2017-11-21T10:39:44.939Z,8.98
2017-11-21T10:40:47.430Z,8.68
2017-11-21T10:41:50.880Z,8.50
2017-11-21T10:42:53.378Z,8.30
2017-11-21T10:43:55.927Z,7.60
2017-11-21T10:44:59.184Z,7.15
2017-11-21T10:46:01.871Z,6.93
2017-11-21T10:47:05.141Z,7.00
2017-11-21T10:48:07.847Z,6.82
2017-11-21T10:49:11.161Z,6.12
2017-11-21T10:50:15.240Z,5.87
2017-11-21T10:51:18.522Z,5.70
2017-11-21T10:52:21.871Z,6.15
2017-11-21T10:53:24.344Z,6.20
2017-11-21T10:54:26.958Z,5.37
2017-11-21T10:55:29.502Z,6.18
2017-11-21T10:56:33.838Z,6.90
2017-11-21T10:57:36.357Z,5.70
2017-11-21T10:58:39.717Z,5.45
2017-11-21T10:59:42.241Z,5.47
2017-11-21T11:00:44.769Z,6.05
2017-11-21T11:01:47.396Z,6.32
2017-11-21T11:02:50.122Z,5.93
2017-11-21T11:03:53.398Z,6.20
2017-11-21T11:04:56.063Z,5.85
2017-11-21T11:05:59.410Z,6.65
2017-11-21T11:07:02.033Z,6.30
2017-11-21T11:08:05.292Z,5.28
2017-11-21T11:09:07.955Z,5.62
2017-11-21T11:10:10.541Z,5.18
2017-11-21T11:11:13.359Z,5.25
2017-11-21T11:12:15.922Z,5.32
2017-11-21T11:13:18.616Z,4.40
2017-11-21T11:14:21.107Z,4.80
2017-11-21T11:15:25.196Z,4.40
2017-11-21T11:16:27.755Z,4.37
2017-11-21T11:17:30.243Z,5.18
2017-11-21T11:18:32.747Z,4.15
2017-11-21T11:19:35.245Z,4.00
2017-11-21T11:20:37.774Z,4.10
2017-11-21T11:21:40.292Z,3.67
2017-11-21T11:22:42.774Z,3.42
2017-11-21T11:23:46.564Z,4.30
2017-11-21T11:24:49.075Z,3.65
2017-11-21T11:25:52.811Z,3.50
2017-11-21T11:26:55.318Z,4.78
2017-11-21T11:27:58.783Z,7.30
2017-11-21T11:29:01.288Z,5.22
2017-11-21T11:30:03.776Z,3.80
2017-11-21T11:31:06.287Z,3.60
2017-11-21T11:32:08.832Z,3.95
2017-11-21T11:33:11.377Z,4.20
2017-11-21T11:34:14.016Z,3.75
2017-11-21T11:35:16.582Z,4.30
2017-11-21T11:36:19.284Z,3.80
2017-11-21T11:37:21.766Z,3.45
2017-11-21T11:38:24.544Z,3.70
2017-11-21T11:39:27.036Z,3.72
2017-11-21T11:40:30.490Z,3.60
2017-11-21T11:41:32.999Z,4.07
2017-11-21T11:42:36.472Z,3.65
2017-11-21T11:43:39.764Z,4.22
2017-11-21T11:44:43.172Z,3.45
2017-11-21T11:45:45.671Z,3.80
2017-11-21T11:46:48.947Z,4.28
2017-11-21T11:47:51.459Z,4.45
2017-11-21T11:48:54.946Z,4.10
2017-11-21T11:49:58.222Z,4.50
2017-11-21T11:51:00.904Z,4.40
2017-11-21T11:52:04.150Z,4.90
2017-11-21T11:53:06.788Z,5.12
2017-11-21T11:54:09.288Z,6.10
2017-11-21T11:55:11.849Z,5.20
2017-11-21T11:56:14.359Z,4.90
2017-11-21T11:57:17.862Z,5.37
2017-11-21T11:58:20.632Z,4.55
2017-11-21T11:59:23.151Z,4.32
2017-11-21T12:00:27.170Z,5.18
2017-11-21T12:01:29.702Z,4.60
2017-11-21T12:02:32.199Z,4.65
2017-11-21T12:03:35.686Z,4.70
2017-11-21T12:04:38.958Z,5.00
2017-11-21T12:05:41.619Z,4.07
2017-11-21T12:06:44.112Z,4.00
2017-11-21T12:07:46.649Z,4.68
2017-11-21T12:08:49.207Z,4.00
2017-11-21T12:09:51.718Z,4.40
2017-11-21T12:10:55.006Z,3.75
2017-11-21T12:11:58.274Z,4.00
2017-11-21T12:13:00.769Z,4.20
2017-11-21T12:14:03.299Z,4.55
2017-11-21T12:15:05.836Z,4.60
2017-11-21T12:16:08.382Z,3.92
2017-11-21T12:17:10.890Z,4.12
2017-11-21T12:18:13.721Z,4.15
2017-11-21T12:19:16.268Z,3.95
2017-11-21T12:20:18.978Z,3.92
2017-11-21T12:21:21.505Z,3.83
2017-11-21T12:22:24.043Z,4.30
2017-11-21T12:23:27.324Z,4.35
2017-11-21T12:24:30.073Z,4.00
2017-11-21T12:25:32.571Z,4.30
2017-11-21T12:26:35.934Z,3.78
2017-11-21T12:27:38.462Z,4.10
2017-11-21T12:28:40.967Z,4.43
2017-11-21T12:29:43.461Z,4.80
2017-11-21T12:30:46.938Z,4.10
2017-11-21T12:31:50.206Z,3.80
2017-11-21T12:32:52.899Z,4.50
2017-11-21T12:33:56.176Z,4.87
2017-11-21T12:34:59.446Z,4.30
2017-11-21T12:36:01.945Z,4.47
2017-11-21T12:37:04.454Z,5.20
2017-11-21T12:38:06.954Z,4.15
2017-11-21T12:39:09.496Z,4.85
2017-11-21T12:40:12.015Z,4.47
2017-11-21T12:41:14.571Z,4.70
2017-11-21T12:42:17.894Z,5.35
2017-11-21T12:43:20.486Z,5.25
2017-11-21T12:44:23.788Z,5.25
2017-11-21T12:45:26.458Z,5.75
2017-11-21T12:46:29.734Z,5.20
2017-11-21T12:47:32.400Z,5.50
2017-11-21T12:48:34.953Z,5.65
2017-11-21T12:49:37.441Z,4.95
2017-11-21T12:50:40.713Z,5.75
2017-11-21T12:51:43.454Z,5.20
2017-11-21T12:52:45.960Z,5.60
2017-11-21T12:53:49.324Z,5.20
2017-11-21T12:54:51.848Z,5.72
2017-11-21T12:55:54.396Z,5.10
2017-11-21T12:56:57.653Z,5.40
2017-11-21T12:58:00.949Z,6.10
2017-11-21T12:59:03.496Z,5.78
2017-11-21T13:00:06.009Z,6.50
2017-11-21T13:01:08.545Z,5.60
2017-11-21T13:02:11.895Z,6.18
2017-11-21T13:03:14.442Z,6.80
2017-11-21T13:04:16.990Z,6.43
2017-11-21T13:05:19.514Z,5.97
2017-11-21T13:06:22.407Z,6.15
2017-11-21T13:07:25.720Z,5.65
2017-11-21T13:08:28.223Z,5.65
2017-11-21T13:09:30.746Z,5.25
2017-11-21T13:10:33.264Z,6.12
2017-11-21T13:11:35.808Z,6.72
2017-11-21T13:12:38.311Z,6.90
2017-11-21T13:13:42.291Z,5.55
2017-11-21T13:14:44.941Z,6.32
2017-11-21T13:15:47.469Z,6.62
2017-11-21T13:16:50.208Z,6.95
2017-11-21T13:17:52.692Z,6.12
2017-11-21T13:18:56.403Z,6.60
2017-11-21T13:19:58.898Z,6.30
2017-11-21T13:21:01.526Z,5.97
2017-11-21T13:22:04.797Z,6.47
2017-11-21T13:23:08.090Z,6.43
2017-11-21T13:24:11.449Z,6.50
2017-11-21T13:25:14.047Z,6.95
2017-11-21T13:26:17.353Z,6.55
2017-11-21T13:27:19.985Z,6.68
2017-11-21T13:28:23.504Z,7.00
2017-11-21T13:29:26.240Z,7.15
2017-11-21T13:30:28.743Z,7.03
2017-11-21T13:31:31.310Z,6.97
2017-11-21T13:32:33.855Z,6.62
2017-11-21T13:33:38.147Z,5.80
2017-11-21T13:34:40.653Z,5.93
2017-11-21T13:35:43.174Z,6.20
2017-11-21T13:36:45.651Z,6.62
2017-11-21T13:37:49.156Z,7.00